Terminal Aerodrome Forecast
Issued by NWS Portland, OR

Home | Current Version | Previous Version | Text Only | Print | Product List | Glossary On
Versions: 1 2 3 4 5 6 7 8 9 10 11 12 13 14 15 16 17 18 19 20 21 22 23 24 25 26 27 28
000
FTUS46 KPQR 061726
TAFTTD
TAF
KTTD 061726Z 0618/0718 31008KT P6SM -SHRA SCT015 SCT035 BKN050
      TEMPO 0618/0622 BKN025 BKN035
     FM070300 32004KT P6SM SCT050
     FM070700 VRB03KT P6SM SCT025 SCT250
     FM071600 29003KT P6SM FEW250=

USA.gov is the U.S. government's official web portal to all federal, state and local government web resources and services.